Time;durP1;ratioP1;P1;durP2;ratioP2;P2;SDS_P1;SDS_P2;PMS_P1;PMS_P2;Temp;Humidity;BMP_temperature;BMP_pressure;BME280_temperature;BME280_humidity;BME280_pressure;Samples;Min_cycle;Max_cycle;Signal;HPM_P1;HPM_P2
2023/09/05 00:00:02;;;;;;;5.97;1.95;;;;;;;;;;6158971;23;20076;-69
2023/09/05 00:02:28;;;;;;;2.88;1.65;;;;;;;;;;6184905;23;20434;-70
2023/09/05 00:04:55;;;;;;;5.28;2.20;;;;;;;;;;6184773;23;20080;-69
2023/09/05 00:07:22;;;;;;;3.25;2.03;;;;;;;;;;6185236;23;20124;-69
2023/09/05 00:09:48;;;;;;;4.63;2.17;;;;;;;;;;6185072;23;20502;-69
2023/09/05 00:12:15;;;;;;;4.68;2.10;;;;;;;;;;6185159;23;20495;-69
2023/09/05 00:14:41;;;;;;;5.57;2.20;;;;;;;;;;6184985;23;20076;-69
2023/09/05 00:17:08;;;;;;;4.30;2.35;;;;;;;;;;6184943;23;20076;-69
2023/09/05 00:19:34;;;;;;;4.80;2.17;;;;;;;;;;6184737;23;20084;-69
2023/09/05 00:22:00;;;;;;;3.15;1.80;;;;;;;;;;6184669;23;20120;-69
2023/09/05 00:24:28;;;;;;;7.93;2.17;;;;;;;;;;6184949;23;20080;-69
2023/09/05 00:26:55;;;;;;;3.15;1.88;;;;;;;;;;6185181;23;20080;-69
2023/09/05 00:29:23;;;;;;;3.33;2.00;;;;;;;;;;6184866;23;20069;-69
2023/09/05 00:31:50;;;;;;;2.95;2.00;;;;;;;;;;6184820;23;20075;-69
2023/09/05 00:34:16;;;;;;;6.80;2.10;;;;;;;;;;6184404;23;20551;-69
2023/09/05 00:36:43;;;;;;;4.68;1.90;;;;;;;;;;6185002;23;20072;-69
2023/09/05 00:39:09;;;;;;;4.47;2.15;;;;;;;;;;6158521;23;20079;-69
2023/09/05 00:41:40;;;;;;;3.78;2.08;;;;;;;;;;6184719;23;20072;-69
2023/09/05 00:44:06;;;;;;;4.40;2.03;;;;;;;;;;6184793;23;20084;-69
2023/09/05 00:46:33;;;;;;;4.32;2.40;;;;;;;;;;6184311;23;20515;-69
2023/09/05 00:49:03;;;;;;;5.47;2.30;;;;;;;;;;6184803;23;20068;-69
2023/09/05 00:51:31;;;;;;;4.97;2.00;;;;;;;;;;6184742;23;20504;-69
2023/09/05 00:53:59;;;;;;;3.90;2.08;;;;;;;;;;6184730;23;20072;-69
2023/09/05 00:56:25;;;;;;;10.07;2.30;;;;;;;;;;6184550;23;20393;-69
2023/09/05 00:58:52;;;;;;;6.68;2.25;;;;;;;;;;6184809;23;20080;-69
2023/09/05 01:01:18;;;;;;;3.83;2.72;;;;;;;;;;6184026;23;20084;-69
2023/09/05 01:03:44;;;;;;;2.75;2.15;;;;;;;;;;6184589;23;20081;-69
2023/09/05 01:06:14;;;;;;;5.53;2.30;;;;;;;;;;6184721;23;20487;-69
2023/09/05 01:08:46;;;;;;;3.00;2.22;;;;;;;;;;6184683;23;20388;-69
2023/09/05 01:11:14;;;;;;;5.05;2.50;;;;;;;;;;6158114;23;20088;-69
2023/09/05 01:13:41;;;;;;;6.35;2.55;;;;;;;;;;6184427;23;20068;-69
2023/09/05 01:16:08;;;;;;;2.83;2.22;;;;;;;;;;6157876;23;20081;-69
2023/09/05 01:18:40;;;;;;;7.32;2.80;;;;;;;;;;6184492;23;20496;-69
2023/09/05 01:21:14;;;;;;;6.03;2.38;;;;;;;;;;6184464;23;20068;-69
2023/09/05 01:23:52;;;;;;;4.65;2.50;;;;;;;;;;6184372;23;20081;-69
2023/09/05 01:26:19;;;;;;;6.05;2.38;;;;;;;;;;6158027;23;20087;-69
2023/09/05 01:28:46;;;;;;;4.00;2.47;;;;;;;;;;6184457;23;20068;-69
2023/09/05 01:31:15;;;;;;;6.72;2.20;;;;;;;;;;6184013;23;20076;-69
2023/09/05 01:33:41;;;;;;;3.17;2.42;;;;;;;;;;6184673;23;20080;-69
2023/09/05 01:36:08;;;;;;;3.50;2.40;;;;;;;;;;6184546;23;20072;-69
2023/09/05 01:38:34;;;;;;;6.03;2.75;;;;;;;;;;6184360;23;20072;-68
2023/09/05 01:41:00;;;;;;;3.83;2.47;;;;;;;;;;6184361;23;20513;-68
2023/09/05 01:43:27;;;;;;;3.30;2.30;;;;;;;;;;6184385;23;20080;-69
2023/09/05 01:45:53;;;;;;;4.20;2.20;;;;;;;;;;6157655;23;20088;-69
2023/09/05 01:48:19;;;;;;;3.08;2.40;;;;;;;;;;6158069;23;20096;-69
2023/09/05 01:50:46;;;;;;;4.65;2.35;;;;;;;;;;6184351;23;20076;-69
2023/09/05 01:53:12;;;;;;;5.68;2.15;;;;;;;;;;6184293;23;20111;-69
2023/09/05 01:55:38;;;;;;;4.50;2.22;;;;;;;;;;6184405;23;20241;-69
2023/09/05 01:58:05;;;;;;;4.55;2.03;;;;;;;;;;6184322;23;20068;-69
2023/09/05 02:00:32;;;;;;;9.05;2.60;;;;;;;;;;6183937;23;20080;-69
2023/09/05 02:02:58;;;;;;;8.23;2.28;;;;;;;;;;6184175;23;20084;-69
2023/09/05 02:05:25;;;;;;;6.55;2.70;;;;;;;;;;6184262;23;20080;-69
2023/09/05 02:07:51;;;;;;;4.38;2.53;;;;;;;;;;6184298;23;20300;-69
2023/09/05 02:10:18;;;;;;;4.25;2.20;;;;;;;;;;6184215;23;20068;-69
2023/09/05 02:12:45;;;;;;;3.92;2.60;;;;;;;;;;6184823;23;20072;-69
2023/09/05 02:15:11;;;;;;;3.55;2.50;;;;;;;;;;6185817;23;20076;-69
2023/09/05 02:17:37;;;;;;;5.32;2.55;;;;;;;;;;6186135;23;20516;-69
2023/09/05 02:20:04;;;;;;;4.55;2.20;;;;;;;;;;6186286;23;20072;-69
2023/09/05 02:22:30;;;;;;;4.25;2.45;;;;;;;;;;6185857;23;20088;-69
2023/09/05 02:24:59;;;;;;;5.22;2.47;;;;;;;;;;6186201;23;20092;-69
2023/09/05 02:27:26;;;;;;;4.90;2.28;;;;;;;;;;6186027;23;20092;-69
2023/09/05 02:29:58;;;;;;;3.05;2.17;;;;;;;;;;6185588;23;20091;-69
2023/09/05 02:32:24;;;;;;;3.45;2.38;;;;;;;;;;6186205;23;20080;-69
2023/09/05 02:34:52;;;;;;;3.33;2.30;;;;;;;;;;6186086;23;20079;-69
2023/09/05 02:37:18;;;;;;;4.38;2.42;;;;;;;;;;6185911;23;20077;-69
2023/09/05 02:39:45;;;;;;;4.95;2.33;;;;;;;;;;6159754;23;20072;-69
2023/09/05 02:42:11;;;;;;;3.42;2.20;;;;;;;;;;6185804;23;20088;-69
2023/09/05 02:44:37;;;;;;;3.55;2.70;;;;;;;;;;6185558;23;20132;-69
2023/09/05 02:47:04;;;;;;;4.13;2.28;;;;;;;;;;6185870;23;20071;-69
2023/09/05 02:49:31;;;;;;;5.18;2.30;;;;;;;;;;6186013;23;20084;-69
2023/09/05 02:51:57;;;;;;;3.15;2.33;;;;;;;;;;6185541;23;20076;-69
2023/09/05 02:54:24;;;;;;;2.83;2.10;;;;;;;;;;6185810;23;20068;-69
2023/09/05 02:56:50;;;;;;;3.33;2.25;;;;;;;;;;6185971;23;20515;-69
2023/09/05 02:59:17;;;;;;;4.70;2.30;;;;;;;;;;6159053;23;20072;-69
2023/09/05 03:01:43;;;;;;;3.17;2.67;;;;;;;;;;6159468;23;20511;-69
2023/09/05 03:04:09;;;;;;;4.50;2.40;;;;;;;;;;6185732;23;20084;-68
2023/09/05 03:06:36;;;;;;;3.08;2.20;;;;;;;;;;6159327;23;20085;-69
2023/09/05 03:09:03;;;;;;;3.47;2.28;;;;;;;;;;6186185;23;20073;-69
2023/09/05 03:11:29;;;;;;;5.53;2.50;;;;;;;;;;6185251;23;20388;-69
2023/09/05 03:13:55;;;;;;;6.55;2.47;;;;;;;;;;6185620;23;20151;-69
2023/09/05 03:16:23;;;;;;;4.47;2.55;;;;;;;;;;6185687;23;20076;-69
2023/09/05 03:18:50;;;;;;;2.97;2.05;;;;;;;;;;6185591;23;20068;-69
2023/09/05 03:21:17;;;;;;;5.65;2.47;;;;;;;;;;6185472;23;20072;-68
2023/09/05 03:23:43;;;;;;;6.38;2.33;;;;;;;;;;6185292;23;20403;-68
2023/09/05 03:26:10;;;;;;;4.10;2.28;;;;;;;;;;6185175;23;20057;-68
2023/09/05 03:28:40;;;;;;;6.47;2.10;;;;;;;;;;6185463;23;20081;-68
2023/09/05 03:31:06;;;;;;;3.13;1.90;;;;;;;;;;6185389;23;20068;-67
2023/09/05 03:33:32;;;;;;;4.35;2.00;;;;;;;;;;6185596;23;20080;-68
2023/09/05 03:35:59;;;;;;;5.78;2.50;;;;;;;;;;6185401;23;20068;-69
2023/09/05 03:38:25;;;;;;;3.05;2.22;;;;;;;;;;6185521;23;20068;-68
2023/09/05 03:40:51;;;;;;;3.53;2.22;;;;;;;;;;6185017;23;20488;-68
2023/09/05 03:43:18;;;;;;;3.72;2.28;;;;;;;;;;6158831;23;20438;-68
2023/09/05 03:45:49;;;;;;;2.95;1.95;;;;;;;;;;6159111;23;20124;-68
2023/09/05 03:48:15;;;;;;;3.42;2.00;;;;;;;;;;6159119;23;20410;-69
2023/09/05 03:50:42;;;;;;;3.63;2.28;;;;;;;;;;6185385;23;20072;-68
2023/09/05 03:53:08;;;;;;;2.55;2.35;;;;;;;;;;6185240;23;20076;-68
2023/09/05 03:55:34;;;;;;;10.07;2.40;;;;;;;;;;6184969;23;20068;-68
2023/09/05 03:58:01;;;;;;;2.60;2.10;;;;;;;;;;6185353;23;20076;-68
2023/09/05 04:00:29;;;;;;;4.97;2.22;;;;;;;;;;6185101;23;20389;-69
2023/09/05 04:02:56;;;;;;;6.20;2.10;;;;;;;;;;6185093;23;20092;-68
2023/09/05 04:05:22;;;;;;;4.80;2.28;;;;;;;;;;6185138;23;20060;-69
2023/09/05 04:07:48;;;;;;;5.43;2.45;;;;;;;;;;6185104;23;20084;-69
2023/09/05 04:10:15;;;;;;;3.35;2.50;;;;;;;;;;6184702;23;20060;-68
2023/09/05 04:12:41;;;;;;;3.55;2.58;;;;;;;;;;6185091;23;20133;-71
2023/09/05 04:15:07;;;;;;;2.50;2.10;;;;;;;;;;6185089;23;20080;-70
2023/09/05 04:17:34;;;;;;;3.42;2.45;;;;;;;;;;6158799;23;20072;-71
2023/09/05 04:20:01;;;;;;;3.22;2.35;;;;;;;;;;6158693;23;20068;-69
2023/09/05 04:22:27;;;;;;;3.65;2.40;;;;;;;;;;6184748;23;20084;-71
2023/09/05 04:24:57;;;;;;;5.72;2.35;;;;;;;;;;6184639;23;20076;-71
2023/09/05 04:27:23;;;;;;;6.60;2.55;;;;;;;;;;6184939;23;20076;-71
2023/09/05 04:29:51;;;;;;;4.40;2.17;;;;;;;;;;6184846;23;20061;-71
2023/09/05 04:32:26;;;;;;;2.97;2.28;;;;;;;;;;6184926;23;20496;-71
2023/09/05 04:34:57;;;;;;;2.72;2.30;;;;;;;;;;6158665;23;20076;-71
2023/09/05 04:37:23;;;;;;;6.18;2.58;;;;;;;;;;6184748;23;20085;-70
2023/09/05 04:39:50;;;;;;;3.70;2.28;;;;;;;;;;6184378;23;20077;-71
2023/09/05 04:42:16;;;;;;;3.67;2.05;;;;;;;;;;6184738;23;20084;-71
2023/09/05 04:44:42;;;;;;;3.67;2.28;;;;;;;;;;6184918;23;20085;-71
2023/09/05 04:47:21;;;;;;;3.33;2.15;;;;;;;;;;6184854;23;20072;-71
2023/09/05 04:49:48;;;;;;;3.90;2.42;;;;;;;;;;6158355;23;20065;-70
2023/09/05 04:52:15;;;;;;;3.28;2.05;;;;;;;;;;6184773;23;20084;-71
2023/09/05 04:54:41;;;;;;;3.33;2.55;;;;;;;;;;6184395;23;20068;-71
2023/09/05 04:57:10;;;;;;;4.20;2.40;;;;;;;;;;6184677;23;20071;-71
2023/09/05 04:59:37;;;;;;;4.35;2.05;;;;;;;;;;6184724;23;20079;-71
2023/09/05 05:02:04;;;;;;;5.53;2.60;;;;;;;;;;6184607;23;20080;-70
2023/09/05 05:04:30;;;;;;;2.67;2.03;;;;;;;;;;6184597;23;20077;-71
2023/09/05 05:06:57;;;;;;;3.40;2.15;;;;;;;;;;6158538;23;20080;-71
2023/09/05 05:09:23;;;;;;;4.32;2.42;;;;;;;;;;6184320;23;20381;-71
2023/09/05 05:11:50;;;;;;;4.15;2.20;;;;;;;;;;6158086;23;20081;-71
2023/09/05 05:14:16;;;;;;;3.95;2.38;;;;;;;;;;6184461;23;20076;-70
2023/09/05 05:16:43;;;;;;;6.45;2.30;;;;;;;;;;6158267;23;20528;-70
2023/09/05 05:19:13;;;;;;;3.00;2.40;;;;;;;;;;6184502;23;20076;-70
2023/09/05 05:21:39;;;;;;;3.08;1.90;;;;;;;;;;6184436;23;20080;-70
2023/09/05 05:24:06;;;;;;;7.90;2.50;;;;;;;;;;6183804;23;20095;-70
2023/09/05 05:26:33;;;;;;;4.72;2.50;;;;;;;;;;6184410;23;20080;-70
2023/09/05 05:28:59;;;;;;;3.90;2.33;;;;;;;;;;6184464;23;20072;-70
2023/09/05 05:31:27;;;;;;;3.25;2.35;;;;;;;;;;6184388;23;20498;-70
2023/09/05 05:33:54;;;;;;;5.28;2.30;;;;;;;;;;6184441;23;20065;-70
2023/09/05 05:36:21;;;;;;;4.68;2.60;;;;;;;;;;6184407;23;20076;-70
2023/09/05 05:38:47;;;;;;;9.25;2.58;;;;;;;;;;6184014;23;20495;-71
2023/09/05 05:41:14;;;;;;;10.05;2.53;;;;;;;;;;6184349;23;20080;-70
2023/09/05 05:43:40;;;;;;;6.72;2.95;;;;;;;;;;6184300;23;20088;-71
2023/09/05 05:46:07;;;;;;;3.55;2.58;;;;;;;;;;6158149;23;20060;-70
2023/09/05 05:48:33;;;;;;;3.75;2.83;;;;;;;;;;6185413;23;20141;-70
2023/09/05 05:50:59;;;;;;;4.85;2.55;;;;;;;;;;6185957;23;20092;-71
2023/09/05 05:53:26;;;;;;;4.88;2.47;;;;;;;;;;6186342;23;20508;-70
2023/09/05 05:55:52;;;;;;;6.63;2.50;;;;;;;;;;6186279;23;20072;-70
2023/09/05 05:58:18;;;;;;;6.15;2.60;;;;;;;;;;6186210;23;20391;-70
2023/09/05 06:00:51;;;;;;;3.30;2.65;;;;;;;;;;6186209;23;20084;-70
2023/09/05 06:03:17;;;;;;;7.53;2.65;;;;;;;;;;6159727;23;20073;-70
2023/09/05 06:05:44;;;;;;;5.00;2.53;;;;;;;;;;6179864;23;20146;-70
2023/09/05 06:08:11;;;;;;;5.38;2.65;;;;;;;;;;6183422;23;20076;-69
2023/09/05 06:10:37;;;;;;;6.57;3.08;;;;;;;;;;6184224;23;20087;-70
2023/09/05 06:13:04;;;;;;;7.68;2.92;;;;;;;;;;6184263;23;20072;-70
2023/09/05 06:15:31;;;;;;;3.53;2.30;;;;;;;;;;6182584;23;20076;-70
2023/09/05 06:17:57;;;;;;;5.85;2.60;;;;;;;;;;6184692;23;20068;-70
2023/09/05 06:20:24;;;;;;;7.82;3.15;;;;;;;;;;6184234;23;20072;-69
2023/09/05 06:22:50;;;;;;;4.30;2.40;;;;;;;;;;6185173;23;20083;-70
2023/09/05 06:25:16;;;;;;;6.15;2.33;;;;;;;;;;6158960;23;20092;-69
2023/09/05 06:27:43;;;;;;;10.85;3.17;;;;;;;;;;6185028;23;20076;-69
2023/09/05 06:30:10;;;;;;;11.77;3.00;;;;;;;;;;6185541;23;20068;-69
2023/09/05 06:32:36;;;;;;;6.65;3.00;;;;;;;;;;6185279;23;20088;-70
2023/09/05 06:35:05;;;;;;;7.78;3.28;;;;;;;;;;6184757;23;20530;-70
2023/09/05 06:37:33;;;;;;;12.30;2.33;;;;;;;;;;6184748;23;20072;-70
2023/09/05 06:40:00;;;;;;;5.60;2.70;;;;;;;;;;6183261;23;20084;-70
2023/09/05 06:42:27;;;;;;;11.68;2.50;;;;;;;;;;6153059;23;20313;-70
2023/09/05 06:44:55;;;;;;;4.93;2.33;;;;;;;;;;6183231;23;20043;-70
2023/09/05 06:47:22;;;;;;;6.68;2.60;;;;;;;;;;6182390;23;20080;-70
2023/09/05 06:49:48;;;;;;;5.53;2.90;;;;;;;;;;6182446;23;20076;-68
2023/09/05 06:52:14;;;;;;;4.70;2.30;;;;;;;;;;6157557;23;20072;-69
2023/09/05 06:54:41;;;;;;;6.38;2.47;;;;;;;;;;6184783;23;20088;-69
2023/09/05 06:57:08;;;;;;;6.43;2.70;;;;;;;;;;6184453;23;20080;-69
2023/09/05 06:59:35;;;;;;;5.60;2.63;;;;;;;;;;6184413;23;20084;-69
2023/09/05 07:02:02;;;;;;;5.32;2.30;;;;;;;;;;6184565;23;20068;-68
2023/09/05 07:04:32;;;;;;;5.10;2.90;;;;;;;;;;6181170;23;20096;-68
2023/09/05 07:06:59;;;;;;;6.57;2.70;;;;;;;;;;6181150;23;20100;-70
2023/09/05 07:09:25;;;;;;;5.60;2.70;;;;;;;;;;6181670;23;20319;-70
2023/09/05 07:11:52;;;;;;;8.27;2.78;;;;;;;;;;6182701;23;20507;-70
2023/09/05 07:14:18;;;;;;;4.78;2.80;;;;;;;;;;6182958;23;20116;-70
2023/09/05 07:16:44;;;;;;;3.90;2.65;;;;;;;;;;6182830;23;20540;-70
2023/09/05 07:19:11;;;;;;;3.63;2.38;;;;;;;;;;6183435;23;20068;-70
2023/09/05 07:21:40;;;;;;;3.92;2.53;;;;;;;;;;6183433;23;20076;-70
2023/09/05 07:24:13;;;;;;;4.78;2.50;;;;;;;;;;6183769;23;20095;-70
2023/09/05 07:26:41;;;;;;;6.20;2.85;;;;;;;;;;6183103;23;20076;-69
2023/09/05 07:29:10;;;;;;;7.68;2.60;;;;;;;;;;6182074;23;20075;-70
2023/09/05 07:31:37;;;;;;;3.78;2.40;;;;;;;;;;6182576;23;20068;-69
2023/09/05 07:34:04;;;;;;;5.10;2.28;;;;;;;;;;6182373;23;20076;-73
2023/09/05 07:36:31;;;;;;;4.85;2.67;;;;;;;;;;6181991;23;20080;-70
2023/09/05 07:38:58;;;;;;;9.70;3.05;;;;;;;;;;6181175;23;20076;-70
2023/09/05 07:41:25;;;;;;;3.00;2.45;;;;;;;;;;6181552;23;20060;-70
2023/09/05 07:43:51;;;;;;;5.20;2.78;;;;;;;;;;6155508;23;20100;-70
2023/09/05 07:46:17;;;;;;;4.13;2.70;;;;;;;;;;6183629;23;20079;-68
2023/09/05 07:48:46;;;;;;;5.60;2.47;;;;;;;;;;6179634;23;20011;-69
2023/09/05 07:51:12;;;;;;;3.58;2.70;;;;;;;;;;6181994;23;20096;-71
2023/09/05 07:53:38;;;;;;;2.72;2.28;;;;;;;;;;6182289;23;20084;-70
2023/09/05 07:56:05;;;;;;;4.63;2.42;;;;;;;;;;6156235;23;20076;-70
2023/09/05 07:58:32;;;;;;;7.93;2.60;;;;;;;;;;6181814;23;20399;-67
2023/09/05 08:00:59;;;;;;;3.35;2.70;;;;;;;;;;6182747;23;20080;-69
2023/09/05 08:03:26;;;;;;;6.03;2.60;;;;;;;;;;6181680;23;20080;-70
2023/09/05 08:05:55;;;;;;;5.20;2.70;;;;;;;;;;6182119;23;20084;-70
2023/09/05 08:08:22;;;;;;;9.02;2.67;;;;;;;;;;6182746;23;20083;-68
2023/09/05 08:10:48;;;;;;;3.00;2.33;;;;;;;;;;6182208;23;20072;-69
2023/09/05 08:13:16;;;;;;;3.90;2.55;;;;;;;;;;6156438;23;20084;-69
2023/09/05 08:15:43;;;;;;;6.65;2.55;;;;;;;;;;6182688;23;20495;-69
2023/09/05 08:18:11;;;;;;;4.95;2.40;;;;;;;;;;6182347;23;20416;-68
2023/09/05 08:20:39;;;;;;;5.78;2.88;;;;;;;;;;6182669;23;20068;-69
2023/09/05 08:23:06;;;;;;;7.78;2.75;;;;;;;;;;6182592;23;20421;-70
2023/09/05 08:25:32;;;;;;;7.68;2.60;;;;;;;;;;6182711;23;20491;-70
2023/09/05 08:27:58;;;;;;;13.32;2.42;;;;;;;;;;6155134;23;20100;-70
2023/09/05 08:30:25;;;;;;;9.43;3.00;;;;;;;;;;6155312;23;20080;-70
2023/09/05 08:32:52;;;;;;;8.18;2.80;;;;;;;;;;6182478;23;20076;-70
2023/09/05 08:35:19;;;;;;;7.38;3.25;;;;;;;;;;6182347;23;20092;-70
2023/09/05 08:37:45;;;;;;;3.50;2.90;;;;;;;;;;6182576;23;20080;-70
2023/09/05 08:40:12;;;;;;;6.20;3.35;;;;;;;;;;6181577;23;20068;-70
2023/09/05 08:42:38;;;;;;;5.80;3.00;;;;;;;;;;6181913;23;20012;-70
2023/09/05 08:45:05;;;;;;;4.75;2.90;;;;;;;;;;6181431;23;20483;-69
2023/09/05 08:47:31;;;;;;;4.90;3.00;;;;;;;;;;6181664;23;20961;-70
2023/09/05 08:50:04;;;;;;;8.07;2.92;;;;;;;;;;6181905;23;20421;-69
2023/09/05 08:52:32;;;;;;;6.35;2.78;;;;;;;;;;6181484;23;20547;-69
2023/09/05 08:55:02;;;;;;;5.55;2.72;;;;;;;;;;6182774;23;20080;-70
2023/09/05 08:57:29;;;;;;;6.63;2.85;;;;;;;;;;6182381;23;20091;-70
2023/09/05 08:59:56;;;;;;;4.18;2.85;;;;;;;;;;6182127;23;20084;-70
2023/09/05 09:02:22;;;;;;;5.25;2.85;;;;;;;;;;6180529;23;20079;-71
2023/09/05 09:04:52;;;;;;;8.25;2.42;;;;;;;;;;6181358;23;20083;-70
2023/09/05 09:07:19;;;;;;;7.35;3.03;;;;;;;;;;6182248;23;20396;-71
2023/09/05 09:09:46;;;;;;;7.40;2.70;;;;;;;;;;6182285;23;20087;-70
2023/09/05 09:12:12;;;;;;;3.35;2.58;;;;;;;;;;6182787;23;20135;-69
2023/09/05 09:14:38;;;;;;;3.50;2.40;;;;;;;;;;6181859;23;20112;-70
2023/09/05 09:17:05;;;;;;;4.82;2.40;;;;;;;;;;6182856;23;20397;-70
2023/09/05 09:19:32;;;;;;;4.95;2.78;;;;;;;;;;6182194;23;20077;-70
2023/09/05 09:22:02;;;;;;;3.28;2.85;;;;;;;;;;6181717;23;20405;-70
2023/09/05 09:24:35;;;;;;;6.72;2.83;;;;;;;;;;6179835;23;20094;-70
2023/09/05 09:27:03;;;;;;;5.07;2.65;;;;;;;;;;6181306;23;20502;-71
2023/09/05 09:29:30;;;;;;;3.70;2.75;;;;;;;;;;6181025;23;20084;-71
2023/09/05 09:32:00;;;;;;;5.20;2.70;;;;;;;;;;6181581;23;20506;-70
2023/09/05 09:34:26;;;;;;;10.68;2.60;;;;;;;;;;6181412;23;20080;-71
2023/09/05 09:36:53;;;;;;;3.22;2.40;;;;;;;;;;6181352;23;20064;-70
2023/09/05 09:39:19;;;;;;;5.28;2.75;;;;;;;;;;6181896;23;20092;-71
2023/09/05 09:41:46;;;;;;;2.90;2.40;;;;;;;;;;6179846;23;20116;-69
2023/09/05 09:44:26;;;;;;;4.65;2.58;;;;;;;;;;6182013;23;20099;-70
2023/09/05 09:46:57;;;;;;;4.70;2.55;;;;;;;;;;6181344;23;20124;-70
2023/09/05 09:49:24;;;;;;;5.53;2.67;;;;;;;;;;6181344;23;20068;-70
2023/09/05 09:51:56;;;;;;;5.03;2.65;;;;;;;;;;6182094;23;20076;-70
2023/09/05 09:54:29;;;;;;;2.92;2.22;;;;;;;;;;6181514;23;20088;-70
2023/09/05 09:56:59;;;;;;;4.65;2.72;;;;;;;;;;6182335;23;20123;-70
2023/09/05 09:59:26;;;;;;;5.28;2.88;;;;;;;;;;6180845;23;20543;-69
2023/09/05 10:01:54;;;;;;;4.38;2.38;;;;;;;;;;6181701;23;20087;-70
2023/09/05 10:04:21;;;;;;;3.42;2.78;;;;;;;;;;6180924;23;20080;-70
2023/09/05 10:06:48;;;;;;;4.95;2.60;;;;;;;;;;6182253;23;20080;-70
2023/09/05 10:09:16;;;;;;;8.77;2.42;;;;;;;;;;6182324;23;20080;-71
2023/09/05 10:11:43;;;;;;;5.50;2.47;;;;;;;;;;6182277;23;20076;-70
2023/09/05 10:14:10;;;;;;;4.80;2.90;;;;;;;;;;6182286;23;20127;-70
2023/09/05 10:16:37;;;;;;;7.85;2.40;;;;;;;;;;6182419;23;20543;-70
2023/09/05 10:19:04;;;;;;;4.55;2.45;;;;;;;;;;6182342;23;20076;-70
2023/09/05 10:21:31;;;;;;;5.45;2.60;;;;;;;;;;6182252;23;20064;-70
2023/09/05 10:23:58;;;;;;;5.80;2.22;;;;;;;;;;6182253;23;20092;-69
2023/09/05 10:26:25;;;;;;;4.65;2.60;;;;;;;;;;6181816;23;20088;-70
2023/09/05 10:28:56;;;;;;;8.40;2.50;;;;;;;;;;6182566;23;20495;-69
2023/09/05 10:31:22;;;;;;;5.88;2.72;;;;;;;;;;6181583;23;20068;-70
2023/09/05 10:33:48;;;;;;;3.60;2.20;;;;;;;;;;6182512;23;20080;-69
2023/09/05 10:36:33;;;;;;;3.95;2.20;;;;;;;;;;6184578;23;20084;-70
2023/09/05 10:39:00;;;;;;;5.63;2.55;;;;;;;;;;6184154;23;20064;-70
2023/09/05 10:41:36;;;;;;;4.07;2.63;;;;;;;;;;6184229;23;20385;-70
2023/09/05 10:44:03;;;;;;;6.47;2.40;;;;;;;;;;6184761;23;20458;-71
2023/09/05 10:46:29;;;;;;;6.53;2.63;;;;;;;;;;6184409;23;20080;-70
2023/09/05 10:49:10;;;;;;;8.55;2.55;;;;;;;;;;6184404;23;20088;-70
2023/09/05 10:51:36;;;;;;;6.82;2.50;;;;;;;;;;6184501;23;20071;-71
2023/09/05 10:54:21;;;;;;;4.50;2.17;;;;;;;;;;6184671;23;20507;-70
2023/09/05 10:56:47;;;;;;;4.47;2.28;;;;;;;;;;6184292;23;20072;-70
2023/09/05 10:59:26;;;;;;;4.68;2.30;;;;;;;;;;6184446;23;20563;-70
2023/09/05 11:01:56;;;;;;;4.22;2.20;;;;;;;;;;6184408;23;20072;-70
2023/09/05 11:04:26;;;;;;;;;;;;;;;;;;6184079;23;20013;-70
2023/09/05 11:07:00;;;;;;;7.30;2.08;;;;;;;;;;6185051;23;19986;-70
2023/09/05 11:09:26;;;;;;;4.38;2.35;;;;;;;;;;6184708;23;20064;-70
2023/09/05 11:11:53;;;;;;;2.92;1.92;;;;;;;;;;6184441;23;20443;-70
2023/09/05 11:14:30;;;;;;;3.88;2.30;;;;;;;;;;6185017;23;20068;-70
2023/09/05 11:16:56;;;;;;;2.17;1.92;;;;;;;;;;6185211;23;20093;-71
2023/09/05 11:19:31;;;;;;;3.60;2.15;;;;;;;;;;6158380;23;20083;-70
2023/09/05 11:22:12;;;;;;;4.15;2.40;;;;;;;;;;6184866;23;20076;-70
2023/09/05 11:24:46;;;;;;;3.17;2.20;;;;;;;;;;6184517;23;20494;-70
2023/09/05 11:27:13;;;;;;;3.92;2.00;;;;;;;;;;6184959;23;20088;-71
2023/09/05 11:29:41;;;;;;;5.72;1.92;;;;;;;;;;6184861;23;20074;-70
2023/09/05 11:32:08;;;;;;;3.22;2.25;;;;;;;;;;6185062;23;20076;-70
2023/09/05 11:34:35;;;;;;;4.18;2.30;;;;;;;;;;6181939;23;20089;-70
2023/09/05 11:37:01;;;;;;;7.15;2.08;;;;;;;;;;6177125;23;20072;-70
2023/09/05 11:39:28;;;;;;;2.88;2.08;;;;;;;;;;6181184;23;20112;-71
2023/09/05 11:41:58;;;;;;;3.35;2.28;;;;;;;;;;6182815;23;20111;-70
2023/09/05 11:44:24;;;;;;;;;;;;;;;;;;6184341;23;20060;-71
2023/09/05 11:46:50;;;;;;;2.53;1.85;;;;;;;;;;6182562;23;19982;-70
2023/09/05 11:49:16;;;;;;;4.15;2.08;;;;;;;;;;6179397;23;20398;-71
2023/09/05 11:51:43;;;;;;;5.40;1.98;;;;;;;;;;6181133;23;20391;-69
2023/09/05 11:54:09;;;;;;;2.30;1.98;;;;;;;;;;6182525;23;20128;-71
2023/09/05 11:56:35;;;;;;;4.95;2.30;;;;;;;;;;6182162;23;20104;-71
2023/09/05 11:59:02;;;;;;;5.40;2.20;;;;;;;;;;6183168;23;20131;-70
2023/09/05 12:01:29;;;;;;;2.88;1.80;;;;;;;;;;6183565;23;20077;-70
2023/09/05 12:04:05;;;;;;;5.35;2.15;;;;;;;;;;6183150;23;20080;-71
2023/09/05 12:06:34;;;;;;;2.50;2.30;;;;;;;;;;6183291;23;20075;-70
2023/09/05 12:09:01;;;;;;;4.03;1.70;;;;;;;;;;6182432;23;20088;-71
2023/09/05 12:11:28;;;;;;;4.80;2.15;;;;;;;;;;6182497;23;20076;-71
2023/09/05 12:13:57;;;;;;;2.63;1.98;;;;;;;;;;6182240;23;20023;-71
2023/09/05 12:16:24;;;;;;;8.05;1.80;;;;;;;;;;6182399;23;20091;-71
2023/09/05 12:19:00;;;;;;;4.32;1.60;;;;;;;;;;6182572;23;20080;-69
2023/09/05 12:21:43;;;;;;;3.40;2.00;;;;;;;;;;6182841;23;20075;-71
2023/09/05 12:24:35;;;;;;;4.53;2.05;;;;;;;;;;6181750;23;20068;-70
2023/09/05 12:27:02;;;;;;;4.85;2.13;;;;;;;;;;6151965;23;20510;-69
2023/09/05 12:29:38;;;;;;;2.92;1.75;;;;;;;;;;6182810;23;20076;-70
2023/09/05 12:32:05;;;;;;;5.50;1.77;;;;;;;;;;6182714;23;20091;-71
2023/09/05 12:34:32;;;;;;;4.25;1.50;;;;;;;;;;6181753;23;20087;-69
2023/09/05 12:36:58;;;;;;;2.67;1.90;;;;;;;;;;6182638;23;20083;-69
2023/09/05 12:39:24;;;;;;;3.33;1.75;;;;;;;;;;6182649;23;20076;-68
2023/09/05 12:41:51;;;;;;;1.90;1.80;;;;;;;;;;6181800;23;20072;-69
2023/09/05 12:44:17;;;;;;;6.60;1.75;;;;;;;;;;6181464;23;20093;-68
2023/09/05 12:46:43;;;;;;;2.92;1.95;;;;;;;;;;6182678;23;20068;-69
2023/09/05 12:49:11;;;;;;;3.28;1.80;;;;;;;;;;6182957;23;20072;-70
2023/09/05 12:51:37;;;;;;;5.97;1.88;;;;;;;;;;6182129;23;20083;-70
2023/09/05 12:54:03;;;;;;;3.10;1.85;;;;;;;;;;6182817;23;20104;-69
2023/09/05 12:56:30;;;;;;;3.50;1.52;;;;;;;;;;6182606;23;20563;-69
2023/09/05 12:58:56;;;;;;;3.92;1.67;;;;;;;;;;6181658;23;20080;-70
2023/09/05 13:01:22;;;;;;;3.65;1.90;;;;;;;;;;6182577;23;20080;-70
2023/09/05 13:03:49;;;;;;;2.42;1.70;;;;;;;;;;6182490;23;20072;-70
2023/09/05 13:06:17;;;;;;;3.58;1.70;;;;;;;;;;6183054;23;20084;-69
2023/09/05 13:08:43;;;;;;;2.65;1.77;;;;;;;;;;6182177;23;20072;-69
2023/09/05 13:11:09;;;;;;;3.17;1.65;;;;;;;;;;6183080;23;20398;-70
2023/09/05 13:13:36;;;;;;;2.33;1.67;;;;;;;;;;6183214;23;20088;-69
2023/09/05 13:16:02;;;;;;;2.65;1.63;;;;;;;;;;6183448;23;20080;-69
2023/09/05 13:18:29;;;;;;;4.88;1.90;;;;;;;;;;6180230;23;20074;-69
2023/09/05 13:20:55;;;;;;;1.80;1.70;;;;;;;;;;6182435;23;20083;-70
2023/09/05 13:23:22;;;;;;;2.70;1.98;;;;;;;;;;6182830;23;20096;-69
2023/09/05 13:25:48;;;;;;;3.65;1.60;;;;;;;;;;6182012;23;20084;-70
2023/09/05 13:28:14;;;;;;;5.00;2.00;;;;;;;;;;6181898;23;20061;-69
2023/09/05 13:30:41;;;;;;;3.65;1.83;;;;;;;;;;6177812;23;20005;-70
2023/09/05 13:33:09;;;;;;;2.17;1.95;;;;;;;;;;6182562;23;20072;-70
2023/09/05 13:35:36;;;;;;;5.38;2.00;;;;;;;;;;6180814;23;20495;-70
2023/09/05 13:38:02;;;;;;;2.25;1.63;;;;;;;;;;6182070;23;20080;-69
2023/09/05 13:40:29;;;;;;;4.93;2.00;;;;;;;;;;6181793;23;20088;-69
2023/09/05 13:42:55;;;;;;;3.75;1.83;;;;;;;;;;6181707;23;20389;-69
2023/09/05 13:45:22;;;;;;;2.13;1.90;;;;;;;;;;6182062;23;20143;-69
2023/09/05 13:47:48;;;;;;;5.97;1.75;;;;;;;;;;6181832;23;20080;-69
2023/09/05 13:50:20;;;;;;;3.10;1.65;;;;;;;;;;6181746;23;20072;-69
2023/09/05 13:52:47;;;;;;;2.17;1.70;;;;;;;;;;6181729;23;20080;-70
2023/09/05 13:55:13;;;;;;;2.75;1.85;;;;;;;;;;6182478;23;20068;-69
2023/09/05 13:57:39;;;;;;;7.70;2.00;;;;;;;;;;6182242;23;20076;-69
2023/09/05 14:00:06;;;;;;;3.80;1.92;;;;;;;;;;6182067;23;20076;-70
2023/09/05 14:02:33;;;;;;;1.98;1.80;;;;;;;;;;6180271;23;20072;-69
2023/09/05 14:04:59;;;;;;;2.55;1.98;;;;;;;;;;6181168;23;20413;-70
2023/09/05 14:07:28;;;;;;;1.88;1.70;;;;;;;;;;6183158;23;20076;-69
2023/09/05 14:09:56;;;;;;;4.47;1.95;;;;;;;;;;6184469;23;20088;-69
2023/09/05 14:12:22;;;;;;;3.33;1.98;;;;;;;;;;6185141;23;20108;-69
2023/09/05 14:14:48;;;;;;;3.40;1.73;;;;;;;;;;6185402;23;20076;-69
2023/09/05 14:17:15;;;;;;;2.67;2.15;;;;;;;;;;6185441;23;20088;-68
2023/09/05 14:19:41;;;;;;;1.92;1.80;;;;;;;;;;6184134;23;20483;-69
2023/09/05 14:22:08;;;;;;;2.92;1.80;;;;;;;;;;6184829;23;20065;-69
2023/09/05 14:24:34;;;;;;;4.15;1.85;;;;;;;;;;6185085;23;20429;-69
2023/09/05 14:27:01;;;;;;;5.38;1.77;;;;;;;;;;6184681;23;20072;-69
2023/09/05 14:29:27;;;;;;;4.82;1.70;;;;;;;;;;6180060;23;20012;-70
2023/09/05 14:31:53;;;;;;;3.67;1.77;;;;;;;;;;6182723;23;20502;-70
2023/09/05 14:34:20;;;;;;;2.58;2.00;;;;;;;;;;6183618;23;20024;-69
2023/09/05 14:36:46;;;;;;;4.10;1.90;;;;;;;;;;6184325;23;20104;-69
2023/09/05 14:39:12;;;;;;;3.85;1.70;;;;;;;;;;6183586;23;20076;-69
2023/09/05 14:41:39;;;;;;;5.70;2.00;;;;;;;;;;6181976;23;20084;-69
2023/09/05 14:44:05;;;;;;;4.20;1.70;;;;;;;;;;6184140;23;20431;-69